sensor_id;sensor_type;location;lat;lon;timestamp;P1;durP1;ratioP1;P2;durP2;ratioP2
48635;SDS011;34429;52.332;5.614;2022-07-26T00:00:41;20.25;;;3.60;;
48635;SDS011;34429;52.332;5.614;2022-07-26T00:03:09;10.50;;;2.37;;
48635;SDS011;34429;52.332;5.614;2022-07-26T00:05:40;10.70;;;2.63;;
48635;SDS011;34429;52.332;5.614;2022-07-26T00:08:09;10.52;;;2.53;;
48635;SDS011;34429;52.332;5.614;2022-07-26T00:10:38;11.27;;;3.28;;
48635;SDS011;34429;52.332;5.614;2022-07-26T00:13:08;9.80;;;2.40;;
48635;SDS011;34429;52.332;5.614;2022-07-26T00:18:08;10.48;;;2.72;;
48635;SDS011;34429;52.332;5.614;2022-07-26T00:20:36;11.55;;;2.95;;
48635;SDS011;34429;52.332;5.614;2022-07-26T00:23:08;12.60;;;3.17;;
48635;SDS011;34429;52.332;5.614;2022-07-26T00:25:36;11.32;;;3.13;;
48635;SDS011;34429;52.332;5.614;2022-07-26T00:28:05;9.00;;;3.28;;
48635;SDS011;34429;52.332;5.614;2022-07-26T00:30:33;12.15;;;3.45;;
48635;SDS011;34429;52.332;5.614;2022-07-26T00:33:02;15.70;;;4.05;;
48635;SDS011;34429;52.332;5.614;2022-07-26T00:35:30;10.95;;;3.05;;
48635;SDS011;34429;52.332;5.614;2022-07-26T00:37:59;10.55;;;3.00;;
48635;SDS011;34429;52.332;5.614;2022-07-26T00:40:30;13.43;;;3.45;;
48635;SDS011;34429;52.332;5.614;2022-07-26T00:42:58;14.82;;;3.35;;
48635;SDS011;34429;52.332;5.614;2022-07-26T00:45:27;12.10;;;2.80;;
48635;SDS011;34429;52.332;5.614;2022-07-26T00:47:55;13.13;;;3.10;;
48635;SDS011;34429;52.332;5.614;2022-07-26T00:50:23;11.27;;;2.45;;
48635;SDS011;34429;52.332;5.614;2022-07-26T00:52:51;11.48;;;2.45;;
48635;SDS011;34429;52.332;5.614;2022-07-26T00:55:20;17.00;;;3.47;;
48635;SDS011;34429;52.332;5.614;2022-07-26T00:57:51;15.07;;;2.72;;
48635;SDS011;34429;52.332;5.614;2022-07-26T01:00:20;11.55;;;2.95;;
48635;SDS011;34429;52.332;5.614;2022-07-26T01:02:51;11.20;;;2.70;;
48635;SDS011;34429;52.332;5.614;2022-07-26T01:05:20;12.30;;;3.03;;
48635;SDS011;34429;52.332;5.614;2022-07-26T01:07:49;10.50;;;2.78;;
48635;SDS011;34429;52.332;5.614;2022-07-26T01:10:18;9.40;;;2.80;;
48635;SDS011;34429;52.332;5.614;2022-07-26T01:12:46;12.30;;;2.70;;
48635;SDS011;34429;52.332;5.614;2022-07-26T01:15:17;10.73;;;2.45;;
48635;SDS011;34429;52.332;5.614;2022-07-26T01:17:47;13.57;;;3.15;;
48635;SDS011;34429;52.332;5.614;2022-07-26T01:20:15;15.53;;;3.53;;
48635;SDS011;34429;52.332;5.614;2022-07-26T01:22:46;10.73;;;2.50;;
48635;SDS011;34429;52.332;5.614;2022-07-26T01:25:14;11.15;;;2.50;;
48635;SDS011;34429;52.332;5.614;2022-07-26T01:27:43;9.70;;;2.67;;
48635;SDS011;34429;52.332;5.614;2022-07-26T01:30:11;12.37;;;2.67;;
48635;SDS011;34429;52.332;5.614;2022-07-26T01:32:40;12.88;;;2.90;;
48635;SDS011;34429;52.332;5.614;2022-07-26T01:35:09;12.80;;;2.75;;
48635;SDS011;34429;52.332;5.614;2022-07-26T01:37:37;8.88;;;2.35;;
48635;SDS011;34429;52.332;5.614;2022-07-26T01:40:09;8.63;;;2.90;;
48635;SDS011;34429;52.332;5.614;2022-07-26T01:42:38;11.65;;;2.63;;
48635;SDS011;34429;52.332;5.614;2022-07-26T01:45:07;10.60;;;2.42;;
48635;SDS011;34429;52.332;5.614;2022-07-26T01:47:36;10.98;;;2.03;;
48635;SDS011;34429;52.332;5.614;2022-07-26T01:50:05;8.43;;;2.60;;
48635;SDS011;34429;52.332;5.614;2022-07-26T01:52:35;10.30;;;2.08;;
48635;SDS011;34429;52.332;5.614;2022-07-26T01:55:03;15.05;;;2.38;;
48635;SDS011;34429;52.332;5.614;2022-07-26T01:57:34;10.73;;;2.88;;
48635;SDS011;34429;52.332;5.614;2022-07-26T02:00:03;12.02;;;2.10;;
48635;SDS011;34429;52.332;5.614;2022-07-26T02:02:33;13.13;;;2.10;;
48635;SDS011;34429;52.332;5.614;2022-07-26T02:05:01;5.68;;;2.08;;
48635;SDS011;34429;52.332;5.614;2022-07-26T02:07:31;6.55;;;2.35;;
48635;SDS011;34429;52.332;5.614;2022-07-26T02:10:04;11.18;;;2.30;;
48635;SDS011;34429;52.332;5.614;2022-07-26T02:12:36;6.78;;;2.08;;
48635;SDS011;34429;52.332;5.614;2022-07-26T02:15:05;7.95;;;2.17;;
48635;SDS011;34429;52.332;5.614;2022-07-26T02:17:35;7.18;;;1.88;;
48635;SDS011;34429;52.332;5.614;2022-07-26T02:20:04;7.30;;;1.95;;
48635;SDS011;34429;52.332;5.614;2022-07-26T02:22:34;7.50;;;1.80;;
48635;SDS011;34429;52.332;5.614;2022-07-26T02:25:02;4.30;;;1.88;;
48635;SDS011;34429;52.332;5.614;2022-07-26T02:30:02;6.55;;;1.70;;
48635;SDS011;34429;52.332;5.614;2022-07-26T02:32:31;7.18;;;1.77;;
48635;SDS011;34429;52.332;5.614;2022-07-26T02:34:59;4.80;;;1.50;;
48635;SDS011;34429;52.332;5.614;2022-07-26T02:37:27;4.43;;;1.70;;
48635;SDS011;34429;52.332;5.614;2022-07-26T02:39:56;3.63;;;2.00;;
48635;SDS011;34429;52.332;5.614;2022-07-26T02:42:24;4.97;;;1.63;;
48635;SDS011;34429;52.332;5.614;2022-07-26T02:44:52;5.68;;;1.70;;
48635;SDS011;34429;52.332;5.614;2022-07-26T02:47:23;2.60;;;1.77;;
48635;SDS011;34429;52.332;5.614;2022-07-26T02:49:51;4.15;;;1.40;;
48635;SDS011;34429;52.332;5.614;2022-07-26T02:52:20;4.10;;;1.60;;
48635;SDS011;34429;52.332;5.614;2022-07-26T02:54:48;2.37;;;1.53;;
48635;SDS011;34429;52.332;5.614;2022-07-26T02:57:16;2.90;;;1.47;;
48635;SDS011;34429;52.332;5.614;2022-07-26T02:59:44;6.00;;;1.60;;
48635;SDS011;34429;52.332;5.614;2022-07-26T03:02:13;5.57;;;1.47;;
48635;SDS011;34429;52.332;5.614;2022-07-26T03:04:43;4.53;;;1.67;;
48635;SDS011;34429;52.332;5.614;2022-07-26T03:07:12;7.78;;;1.80;;
48635;SDS011;34429;52.332;5.614;2022-07-26T03:09:40;4.10;;;1.70;;
48635;SDS011;34429;52.332;5.614;2022-07-26T03:12:08;3.55;;;1.60;;
48635;SDS011;34429;52.332;5.614;2022-07-26T03:14:37;3.53;;;1.57;;
48635;SDS011;34429;52.332;5.614;2022-07-26T03:17:05;6.87;;;1.80;;
48635;SDS011;34429;52.332;5.614;2022-07-26T03:19:33;4.23;;;1.70;;
48635;SDS011;34429;52.332;5.614;2022-07-26T03:22:04;4.77;;;1.60;;
48635;SDS011;34429;52.332;5.614;2022-07-26T03:24:32;4.32;;;1.80;;
48635;SDS011;34429;52.332;5.614;2022-07-26T03:27:00;3.90;;;1.67;;
48635;SDS011;34429;52.332;5.614;2022-07-26T03:29:29;2.97;;;1.50;;
48635;SDS011;34429;52.332;5.614;2022-07-26T03:31:57;2.03;;;1.40;;
48635;SDS011;34429;52.332;5.614;2022-07-26T03:34:25;3.13;;;1.53;;
48635;SDS011;34429;52.332;5.614;2022-07-26T03:36:53;5.07;;;1.60;;
48635;SDS011;34429;52.332;5.614;2022-07-26T03:39:24;4.07;;;1.87;;
48635;SDS011;34429;52.332;5.614;2022-07-26T03:41:53;4.60;;;2.25;;
48635;SDS011;34429;52.332;5.614;2022-07-26T03:44:21;4.60;;;1.87;;
48635;SDS011;34429;52.332;5.614;2022-07-26T03:46:52;4.83;;;1.70;;
48635;SDS011;34429;52.332;5.614;2022-07-26T03:49:21;5.50;;;1.70;;
48635;SDS011;34429;52.332;5.614;2022-07-26T03:51:49;6.00;;;1.42;;
48635;SDS011;34429;52.332;5.614;2022-07-26T03:54:19;5.95;;;2.15;;
48635;SDS011;34429;52.332;5.614;2022-07-26T03:56:50;6.07;;;2.00;;
48635;SDS011;34429;52.332;5.614;2022-07-26T03:59:16;4.22;;;1.70;;
48635;SDS011;34429;52.332;5.614;2022-07-26T04:04:14;2.95;;;1.42;;
48635;SDS011;34429;52.332;5.614;2022-07-26T04:06:44;6.38;;;1.80;;
48635;SDS011;34429;52.332;5.614;2022-07-26T04:09:13;4.13;;;2.10;;
48635;SDS011;34429;52.332;5.614;2022-07-26T04:14:15;5.00;;;2.33;;
48635;SDS011;34429;52.332;5.614;2022-07-26T04:16:43;3.22;;;1.73;;
48635;SDS011;34429;52.332;5.614;2022-07-26T04:19:12;5.77;;;1.90;;
48635;SDS011;34429;52.332;5.614;2022-07-26T04:21:40;7.50;;;1.65;;
48635;SDS011;34429;52.332;5.614;2022-07-26T04:24:08;4.72;;;1.52;;
48635;SDS011;34429;52.332;5.614;2022-07-26T04:26:37;6.10;;;2.00;;
48635;SDS011;34429;52.332;5.614;2022-07-26T04:29:05;5.43;;;2.17;;
48635;SDS011;34429;52.332;5.614;2022-07-26T04:31:36;4.90;;;2.13;;
48635;SDS011;34429;52.332;5.614;2022-07-26T04:34:04;7.65;;;2.10;;
48635;SDS011;34429;52.332;5.614;2022-07-26T04:36:32;6.70;;;1.90;;
48635;SDS011;34429;52.332;5.614;2022-07-26T04:39:01;7.15;;;1.90;;
48635;SDS011;34429;52.332;5.614;2022-07-26T04:41:29;4.10;;;1.90;;
48635;SDS011;34429;52.332;5.614;2022-07-26T04:43:57;5.37;;;1.70;;
48635;SDS011;34429;52.332;5.614;2022-07-26T04:46:25;4.70;;;1.80;;
48635;SDS011;34429;52.332;5.614;2022-07-26T04:48:56;5.05;;;1.73;;
48635;SDS011;34429;52.332;5.614;2022-07-26T04:51:25;5.72;;;1.95;;
48635;SDS011;34429;52.332;5.614;2022-07-26T04:53:53;4.97;;;1.83;;
48635;SDS011;34429;52.332;5.614;2022-07-26T04:56:21;4.00;;;1.40;;
48635;SDS011;34429;52.332;5.614;2022-07-26T04:58:49;3.83;;;1.50;;
48635;SDS011;34429;52.332;5.614;2022-07-26T05:01:18;3.00;;;1.37;;
48635;SDS011;34429;52.332;5.614;2022-07-26T05:03:46;4.13;;;1.38;;
48635;SDS011;34429;52.332;5.614;2022-07-26T05:06:17;5.50;;;1.40;;
48635;SDS011;34429;52.332;5.614;2022-07-26T05:08:45;4.97;;;1.50;;
48635;SDS011;34429;52.332;5.614;2022-07-26T05:11:13;4.97;;;1.23;;
48635;SDS011;34429;52.332;5.614;2022-07-26T05:13:42;5.85;;;1.30;;
48635;SDS011;34429;52.332;5.614;2022-07-26T05:16:10;2.08;;;1.25;;
48635;SDS011;34429;52.332;5.614;2022-07-26T05:18:38;4.68;;;1.27;;
48635;SDS011;34429;52.332;5.614;2022-07-26T05:21:07;2.03;;;1.20;;
48635;SDS011;34429;52.332;5.614;2022-07-26T05:23:38;4.65;;;1.20;;
48635;SDS011;34429;52.332;5.614;2022-07-26T05:26:06;3.10;;;1.20;;
48635;SDS011;34429;52.332;5.614;2022-07-26T05:28:34;4.05;;;1.25;;
48635;SDS011;34429;52.332;5.614;2022-07-26T05:31:05;3.85;;;1.48;;
48635;SDS011;34429;52.332;5.614;2022-07-26T05:33:33;2.60;;;1.15;;
48635;SDS011;34429;52.332;5.614;2022-07-26T05:36:01;2.53;;;1.25;;
48635;SDS011;34429;52.332;5.614;2022-07-26T05:38:30;3.28;;;1.20;;
48635;SDS011;34429;52.332;5.614;2022-07-26T05:41:01;5.82;;;1.17;;
48635;SDS011;34429;52.332;5.614;2022-07-26T05:43:29;2.78;;;1.10;;
48635;SDS011;34429;52.332;5.614;2022-07-26T05:45:58;4.28;;;1.05;;
48635;SDS011;34429;52.332;5.614;2022-07-26T05:48:26;2.97;;;1.15;;
48635;SDS011;34429;52.332;5.614;2022-07-26T05:50:54;3.53;;;1.00;;
48635;SDS011;34429;52.332;5.614;2022-07-26T05:53:24;3.10;;;1.10;;
48635;SDS011;34429;52.332;5.614;2022-07-26T05:55:52;3.15;;;0.80;;
48635;SDS011;34429;52.332;5.614;2022-07-26T05:58:23;3.13;;;1.35;;
48635;SDS011;34429;52.332;5.614;2022-07-26T06:00:51;3.20;;;0.90;;
48635;SDS011;34429;52.332;5.614;2022-07-26T06:03:20;2.58;;;1.00;;
48635;SDS011;34429;52.332;5.614;2022-07-26T06:05:51;3.58;;;0.80;;
48635;SDS011;34429;52.332;5.614;2022-07-26T06:08:21;4.95;;;1.02;;
48635;SDS011;34429;52.332;5.614;2022-07-26T06:10:49;3.00;;;1.00;;
48635;SDS011;34429;52.332;5.614;2022-07-26T06:13:18;7.88;;;1.23;;
48635;SDS011;34429;52.332;5.614;2022-07-26T06:15:49;6.53;;;1.20;;
48635;SDS011;34429;52.332;5.614;2022-07-26T06:18:17;2.33;;;0.82;;
48635;SDS011;34429;52.332;5.614;2022-07-26T06:20:46;3.13;;;0.90;;
48635;SDS011;34429;52.332;5.614;2022-07-26T06:25:43;4.30;;;0.93;;
48635;SDS011;34429;52.332;5.614;2022-07-26T06:28:11;2.65;;;0.70;;
48635;SDS011;34429;52.332;5.614;2022-07-26T06:30:42;3.70;;;0.90;;
48635;SDS011;34429;52.332;5.614;2022-07-26T06:33:14;5.53;;;1.25;;
48635;SDS011;34429;52.332;5.614;2022-07-26T06:35:42;3.97;;;1.10;;
48635;SDS011;34429;52.332;5.614;2022-07-26T06:38:10;7.77;;;1.30;;
48635;SDS011;34429;52.332;5.614;2022-07-26T06:40:38;1.07;;;0.87;;
48635;SDS011;34429;52.332;5.614;2022-07-26T06:43:10;3.50;;;1.10;;
48635;SDS011;34429;52.332;5.614;2022-07-26T06:45:41;3.60;;;1.10;;
48635;SDS011;34429;52.332;5.614;2022-07-26T06:48:10;2.67;;;1.00;;
48635;SDS011;34429;52.332;5.614;2022-07-26T06:50:42;4.93;;;1.20;;
48635;SDS011;34429;52.332;5.614;2022-07-26T06:53:10;2.75;;;1.02;;
48635;SDS011;34429;52.332;5.614;2022-07-26T06:55:39;4.07;;;2.55;;
48635;SDS011;34429;52.332;5.614;2022-07-26T06:58:07;4.57;;;1.30;;
48635;SDS011;34429;52.332;5.614;2022-07-26T07:00:36;4.05;;;0.95;;
48635;SDS011;34429;52.332;5.614;2022-07-26T07:03:04;2.15;;;0.70;;
48635;SDS011;34429;52.332;5.614;2022-07-26T07:05:32;3.27;;;0.83;;
48635;SDS011;34429;52.332;5.614;2022-07-26T07:08:04;1.40;;;0.80;;
48635;SDS011;34429;52.332;5.614;2022-07-26T07:10:33;4.30;;;1.02;;
48635;SDS011;34429;52.332;5.614;2022-07-26T07:13:01;4.50;;;1.10;;
48635;SDS011;34429;52.332;5.614;2022-07-26T07:15:29;6.63;;;0.90;;
48635;SDS011;34429;52.332;5.614;2022-07-26T07:17:58;3.07;;;0.87;;
48635;SDS011;34429;52.332;5.614;2022-07-26T07:20:26;2.40;;;1.17;;
48635;SDS011;34429;52.332;5.614;2022-07-26T07:22:55;4.78;;;0.75;;
48635;SDS011;34429;52.332;5.614;2022-07-26T07:25:25;1.27;;;0.70;;
48635;SDS011;34429;52.332;5.614;2022-07-26T07:27:54;2.75;;;0.75;;
48635;SDS011;34429;52.332;5.614;2022-07-26T07:30:22;3.67;;;1.07;;
48635;SDS011;34429;52.332;5.614;2022-07-26T07:32:50;3.30;;;0.70;;
48635;SDS011;34429;52.332;5.614;2022-07-26T07:35:19;1.80;;;0.60;;
48635;SDS011;34429;52.332;5.614;2022-07-26T07:37:47;3.13;;;0.70;;
48635;SDS011;34429;52.332;5.614;2022-07-26T07:40:16;2.83;;;0.60;;
48635;SDS011;34429;52.332;5.614;2022-07-26T07:42:47;0.75;;;0.50;;
48635;SDS011;34429;52.332;5.614;2022-07-26T07:45:15;2.60;;;0.70;;
48635;SDS011;34429;52.332;5.614;2022-07-26T07:47:43;1.97;;;0.80;;
48635;SDS011;34429;52.332;5.614;2022-07-26T07:50:11;1.47;;;0.50;;
48635;SDS011;34429;52.332;5.614;2022-07-26T07:52:40;0.85;;;0.50;;
48635;SDS011;34429;52.332;5.614;2022-07-26T07:55:08;0.52;;;0.50;;
48635;SDS011;34429;52.332;5.614;2022-07-26T07:57:37;3.30;;;0.73;;
48635;SDS011;34429;52.332;5.614;2022-07-26T08:00:09;2.80;;;0.50;;
48635;SDS011;34429;52.332;5.614;2022-07-26T08:02:39;1.90;;;0.57;;
48635;SDS011;34429;52.332;5.614;2022-07-26T08:05:08;2.65;;;0.68;;
48635;SDS011;34429;52.332;5.614;2022-07-26T08:07:36;1.58;;;0.63;;
48635;SDS011;34429;52.332;5.614;2022-07-26T08:10:05;2.13;;;0.55;;
48635;SDS011;34429;52.332;5.614;2022-07-26T08:12:34;2.78;;;0.60;;
48635;SDS011;34429;52.332;5.614;2022-07-26T08:15:03;3.13;;;0.57;;
48635;SDS011;34429;52.332;5.614;2022-07-26T08:17:35;2.67;;;0.68;;
48635;SDS011;34429;52.332;5.614;2022-07-26T08:20:04;3.72;;;0.50;;
48635;SDS011;34429;52.332;5.614;2022-07-26T08:22:33;3.22;;;0.63;;
48635;SDS011;34429;52.332;5.614;2022-07-26T08:25:01;3.22;;;0.65;;
48635;SDS011;34429;52.332;5.614;2022-07-26T08:27:30;1.33;;;0.57;;
48635;SDS011;34429;52.332;5.614;2022-07-26T08:29:58;2.50;;;0.60;;
48635;SDS011;34429;52.332;5.614;2022-07-26T08:32:26;1.77;;;0.50;;
48635;SDS011;34429;52.332;5.614;2022-07-26T08:34:57;3.58;;;0.70;;
48635;SDS011;34429;52.332;5.614;2022-07-26T08:37:25;1.50;;;0.60;;
48635;SDS011;34429;52.332;5.614;2022-07-26T08:39:54;1.13;;;0.50;;
48635;SDS011;34429;52.332;5.614;2022-07-26T08:42:22;0.95;;;0.50;;
48635;SDS011;34429;52.332;5.614;2022-07-26T08:44:51;3.28;;;0.55;;
48635;SDS011;34429;52.332;5.614;2022-07-26T08:47:19;2.65;;;0.50;;
48635;SDS011;34429;52.332;5.614;2022-07-26T08:49:48;2.35;;;0.60;;
48635;SDS011;34429;52.332;5.614;2022-07-26T08:52:19;2.28;;;0.85;;
48635;SDS011;34429;52.332;5.614;2022-07-26T08:54:49;1.73;;;0.60;;
48635;SDS011;34429;52.332;5.614;2022-07-26T08:57:19;1.65;;;0.80;;
48635;SDS011;34429;52.332;5.614;2022-07-26T09:02:44;2.17;;;0.50;;
48635;SDS011;34429;52.332;5.614;2022-07-26T09:05:13;6.00;;;1.08;;
48635;SDS011;34429;52.332;5.614;2022-07-26T09:07:44;2.50;;;0.80;;
48635;SDS011;34429;52.332;5.614;2022-07-26T09:10:13;1.95;;;0.43;;
48635;SDS011;34429;52.332;5.614;2022-07-26T09:12:42;3.70;;;0.80;;
48635;SDS011;34429;52.332;5.614;2022-07-26T09:17:47;1.40;;;0.70;;
48635;SDS011;34429;52.332;5.614;2022-07-26T09:20:18;6.95;;;0.70;;
48635;SDS011;34429;52.332;5.614;2022-07-26T09:22:57;2.17;;;1.02;;
48635;SDS011;34429;52.332;5.614;2022-07-26T09:25:27;5.07;;;0.75;;
48635;SDS011;34429;52.332;5.614;2022-07-26T09:27:57;2.08;;;0.60;;
48635;SDS011;34429;52.332;5.614;2022-07-26T09:30:27;3.72;;;0.70;;
48635;SDS011;34429;52.332;5.614;2022-07-26T09:32:59;2.40;;;0.70;;
48635;SDS011;34429;52.332;5.614;2022-07-26T09:35:34;4.47;;;0.90;;
48635;SDS011;34429;52.332;5.614;2022-07-26T09:38:13;3.38;;;0.85;;
48635;SDS011;34429;52.332;5.614;2022-07-26T09:40:42;2.38;;;0.68;;
48635;SDS011;34429;52.332;5.614;2022-07-26T09:43:11;1.63;;;0.60;;
48635;SDS011;34429;52.332;5.614;2022-07-26T09:45:40;1.98;;;0.70;;
48635;SDS011;34429;52.332;5.614;2022-07-26T09:48:09;0.85;;;0.55;;
48635;SDS011;34429;52.332;5.614;2022-07-26T09:50:45;2.78;;;0.80;;
48635;SDS011;34429;52.332;5.614;2022-07-26T09:53:16;2.75;;;0.70;;
48635;SDS011;34429;52.332;5.614;2022-07-26T09:55:53;4.43;;;0.75;;
48635;SDS011;34429;52.332;5.614;2022-07-26T09:58:23;4.32;;;0.80;;
48635;SDS011;34429;52.332;5.614;2022-07-26T10:00:51;2.80;;;0.60;;
48635;SDS011;34429;52.332;5.614;2022-07-26T10:03:20;1.92;;;0.70;;
48635;SDS011;34429;52.332;5.614;2022-07-26T10:05:48;3.17;;;0.65;;
48635;SDS011;34429;52.332;5.614;2022-07-26T10:08:19;4.10;;;0.60;;
48635;SDS011;34429;52.332;5.614;2022-07-26T10:10:48;4.20;;;0.80;;
48635;SDS011;34429;52.332;5.614;2022-07-26T10:13:20;2.63;;;0.63;;
48635;SDS011;34429;52.332;5.614;2022-07-26T10:21:16;2.80;;;1.02;;
48635;SDS011;34429;52.332;5.614;2022-07-26T10:23:48;4.07;;;0.98;;
48635;SDS011;34429;52.332;5.614;2022-07-26T10:29:20;2.70;;;0.75;;
48635;SDS011;34429;52.332;5.614;2022-07-26T10:34:51;5.10;;;1.10;;
48635;SDS011;34429;52.332;5.614;2022-07-26T10:37:21;3.20;;;0.83;;
48635;SDS011;34429;52.332;5.614;2022-07-26T10:40:14;4.53;;;0.85;;
48635;SDS011;34429;52.332;5.614;2022-07-26T10:42:44;2.78;;;0.77;;
48635;SDS011;34429;52.332;5.614;2022-07-26T10:45:16;3.13;;;0.98;;
48635;SDS011;34429;52.332;5.614;2022-07-26T10:50:37;1.42;;;0.70;;
48635;SDS011;34429;52.332;5.614;2022-07-26T10:53:07;3.00;;;0.93;;
48635;SDS011;34429;52.332;5.614;2022-07-26T10:55:46;3.65;;;0.80;;
48635;SDS011;34429;52.332;5.614;2022-07-26T10:58:16;6.40;;;1.35;;
48635;SDS011;34429;52.332;5.614;2022-07-26T11:00:54;2.72;;;1.08;;
48635;SDS011;34429;52.332;5.614;2022-07-26T11:03:24;6.82;;;1.42;;
48635;SDS011;34429;52.332;5.614;2022-07-26T11:06:07;2.72;;;0.90;;
48635;SDS011;34429;52.332;5.614;2022-07-26T11:08:36;4.90;;;1.10;;
48635;SDS011;34429;52.332;5.614;2022-07-26T11:11:07;3.70;;;0.80;;
48635;SDS011;34429;52.332;5.614;2022-07-26T11:13:36;4.85;;;0.80;;
48635;SDS011;34429;52.332;5.614;2022-07-26T11:16:05;1.92;;;0.70;;
48635;SDS011;34429;52.332;5.614;2022-07-26T11:18:35;2.47;;;0.80;;
48635;SDS011;34429;52.332;5.614;2022-07-26T11:21:08;3.70;;;0.88;;
48635;SDS011;34429;52.332;5.614;2022-07-26T11:23:38;3.53;;;0.98;;
48635;SDS011;34429;52.332;5.614;2022-07-26T11:26:14;4.20;;;1.00;;
48635;SDS011;34429;52.332;5.614;2022-07-26T11:28:53;2.38;;;0.73;;
48635;SDS011;34429;52.332;5.614;2022-07-26T11:31:25;2.78;;;1.10;;
48635;SDS011;34429;52.332;5.614;2022-07-26T11:33:55;2.85;;;0.77;;
48635;SDS011;34429;52.332;5.614;2022-07-26T11:36:33;4.05;;;0.95;;
48635;SDS011;34429;52.332;5.614;2022-07-26T11:39:03;4.65;;;1.20;;
48635;SDS011;34429;52.332;5.614;2022-07-26T11:41:37;1.88;;;1.08;;
48635;SDS011;34429;52.332;5.614;2022-07-26T11:44:13;5.32;;;1.08;;
48635;SDS011;34429;52.332;5.614;2022-07-26T11:46:42;4.88;;;0.98;;
48635;SDS011;34429;52.332;5.614;2022-07-26T11:49:14;4.07;;;0.90;;
48635;SDS011;34429;52.332;5.614;2022-07-26T11:51:47;7.57;;;1.02;;
48635;SDS011;34429;52.332;5.614;2022-07-26T11:54:17;7.35;;;1.40;;
48635;SDS011;34429;52.332;5.614;2022-07-26T11:56:52;5.00;;;1.20;;
48635;SDS011;34429;52.332;5.614;2022-07-26T11:59:22;7.88;;;1.10;;
48635;SDS011;34429;52.332;5.614;2022-07-26T12:01:52;8.18;;;1.30;;
48635;SDS011;34429;52.332;5.614;2022-07-26T12:06:50;7.47;;;1.50;;
48635;SDS011;34429;52.332;5.614;2022-07-26T12:09:26;3.13;;;0.95;;
48635;SDS011;34429;52.332;5.614;2022-07-26T12:11:59;6.90;;;1.35;;
48635;SDS011;34429;52.332;5.614;2022-07-26T12:14:29;5.85;;;1.35;;
48635;SDS011;34429;52.332;5.614;2022-07-26T12:17:08;2.72;;;0.85;;
48635;SDS011;34429;52.332;5.614;2022-07-26T12:19:38;4.90;;;1.40;;
48635;SDS011;34429;52.332;5.614;2022-07-26T12:22:07;2.42;;;1.15;;
48635;SDS011;34429;52.332;5.614;2022-07-26T12:24:46;4.85;;;1.25;;
48635;SDS011;34429;52.332;5.614;2022-07-26T12:27:25;4.95;;;1.10;;
48635;SDS011;34429;52.332;5.614;2022-07-26T12:30:12;6.05;;;1.27;;
48635;SDS011;34429;52.332;5.614;2022-07-26T12:32:42;5.63;;;1.25;;
48635;SDS011;34429;52.332;5.614;2022-07-26T12:35:13;5.18;;;1.33;;
48635;SDS011;34429;52.332;5.614;2022-07-26T12:37:49;4.70;;;1.30;;
48635;SDS011;34429;52.332;5.614;2022-07-26T12:40:20;6.25;;;1.10;;
48635;SDS011;34429;52.332;5.614;2022-07-26T12:42:56;5.88;;;1.10;;
48635;SDS011;34429;52.332;5.614;2022-07-26T12:45:26;8.57;;;1.20;;
48635;SDS011;34429;52.332;5.614;2022-07-26T12:47:56;5.47;;;1.20;;
48635;SDS011;34429;52.332;5.614;2022-07-26T12:50:25;4.40;;;0.98;;
48635;SDS011;34429;52.332;5.614;2022-07-26T12:52:58;3.95;;;1.00;;
48635;SDS011;34429;52.332;5.614;2022-07-26T12:55:28;3.35;;;0.90;;
48635;SDS011;34429;52.332;5.614;2022-07-26T12:57:59;3.70;;;1.15;;
48635;SDS011;34429;52.332;5.614;2022-07-26T13:00:28;4.18;;;1.00;;
48635;SDS011;34429;52.332;5.614;2022-07-26T13:02:56;2.08;;;0.90;;
48635;SDS011;34429;52.332;5.614;2022-07-26T13:05:25;3.67;;;1.15;;
48635;SDS011;34429;52.332;5.614;2022-07-26T13:07:54;3.08;;;1.10;;
48635;SDS011;34429;52.332;5.614;2022-07-26T13:10:22;3.88;;;1.10;;
48635;SDS011;34429;52.332;5.614;2022-07-26T13:12:51;6.35;;;1.02;;
48635;SDS011;34429;52.332;5.614;2022-07-26T13:15:22;5.20;;;1.10;;
48635;SDS011;34429;52.332;5.614;2022-07-26T13:17:51;2.35;;;1.10;;
48635;SDS011;34429;52.332;5.614;2022-07-26T13:20:19;4.32;;;1.08;;
48635;SDS011;34429;52.332;5.614;2022-07-26T13:22:47;3.63;;;0.80;;
48635;SDS011;34429;52.332;5.614;2022-07-26T13:25:16;7.97;;;1.13;;
48635;SDS011;34429;52.332;5.614;2022-07-26T13:27:44;4.47;;;1.05;;
48635;SDS011;34429;52.332;5.614;2022-07-26T13:30:12;2.75;;;1.02;;
48635;SDS011;34429;52.332;5.614;2022-07-26T13:32:43;4.00;;;1.40;;
48635;SDS011;34429;52.332;5.614;2022-07-26T13:35:11;7.47;;;1.55;;
48635;SDS011;34429;52.332;5.614;2022-07-26T13:37:40;4.63;;;0.90;;
48635;SDS011;34429;52.332;5.614;2022-07-26T13:40:09;3.75;;;1.13;;
48635;SDS011;34429;52.332;5.614;2022-07-26T13:42:37;4.80;;;0.90;;
48635;SDS011;34429;52.332;5.614;2022-07-26T13:45:06;4.65;;;1.00;;
48635;SDS011;34429;52.332;5.614;2022-07-26T13:47:36;4.20;;;1.02;;
48635;SDS011;34429;52.332;5.614;2022-07-26T13:50:07;4.88;;;1.20;;
48635;SDS011;34429;52.332;5.614;2022-07-26T13:52:36;2.63;;;0.77;;
48635;SDS011;34429;52.332;5.614;2022-07-26T13:55:05;4.18;;;0.90;;
48635;SDS011;34429;52.332;5.614;2022-07-26T13:57:34;6.35;;;0.93;;
48635;SDS011;34429;52.332;5.614;2022-07-26T14:00:02;3.92;;;0.98;;
48635;SDS011;34429;52.332;5.614;2022-07-26T14:02:31;2.67;;;0.90;;
48635;SDS011;34429;52.332;5.614;2022-07-26T14:04:59;1.30;;;0.80;;
48635;SDS011;34429;52.332;5.614;2022-07-26T14:07:30;2.00;;;0.80;;
48635;SDS011;34429;52.332;5.614;2022-07-26T14:09:59;3.03;;;0.80;;
48635;SDS011;34429;52.332;5.614;2022-07-26T14:12:27;2.13;;;0.80;;
48635;SDS011;34429;52.332;5.614;2022-07-26T14:14:55;2.33;;;0.88;;
48635;SDS011;34429;52.332;5.614;2022-07-26T14:17:23;4.00;;;0.88;;
48635;SDS011;34429;52.332;5.614;2022-07-26T14:19:52;3.33;;;0.93;;
48635;SDS011;34429;52.332;5.614;2022-07-26T14:22:20;2.28;;;0.88;;
48635;SDS011;34429;52.332;5.614;2022-07-26T14:24:52;3.80;;;0.90;;
48635;SDS011;34429;52.332;5.614;2022-07-26T14:27:20;4.53;;;1.02;;
48635;SDS011;34429;52.332;5.614;2022-07-26T14:29:52;4.18;;;0.80;;
48635;SDS011;34429;52.332;5.614;2022-07-26T14:32:20;4.30;;;1.02;;
48635;SDS011;34429;52.332;5.614;2022-07-26T14:34:48;1.75;;;0.70;;
48635;SDS011;34429;52.332;5.614;2022-07-26T14:37:16;3.08;;;0.80;;
48635;SDS011;34429;52.332;5.614;2022-07-26T14:39:45;2.80;;;0.70;;
48635;SDS011;34429;52.332;5.614;2022-07-26T14:42:16;3.15;;;0.80;;
48635;SDS011;34429;52.332;5.614;2022-07-26T14:44:44;3.50;;;0.98;;
48635;SDS011;34429;52.332;5.614;2022-07-26T14:47:12;3.83;;;1.48;;
48635;SDS011;34429;52.332;5.614;2022-07-26T14:49:40;3.60;;;0.82;;
48635;SDS011;34429;52.332;5.614;2022-07-26T14:52:09;5.25;;;1.05;;
48635;SDS011;34429;52.332;5.614;2022-07-26T14:54:37;3.05;;;0.98;;
48635;SDS011;34429;52.332;5.614;2022-07-26T14:57:05;2.47;;;1.20;;
48635;SDS011;34429;52.332;5.614;2022-07-26T14:59:36;2.75;;;1.05;;
48635;SDS011;34429;52.332;5.614;2022-07-26T15:02:04;5.88;;;0.80;;
48635;SDS011;34429;52.332;5.614;2022-07-26T15:04:33;3.80;;;1.00;;
48635;SDS011;34429;52.332;5.614;2022-07-26T15:07:01;5.00;;;1.35;;
48635;SDS011;34429;52.332;5.614;2022-07-26T15:09:29;3.58;;;0.73;;
48635;SDS011;34429;52.332;5.614;2022-07-26T15:11:57;8.13;;;0.95;;
48635;SDS011;34429;52.332;5.614;2022-07-26T15:14:26;3.60;;;0.80;;
48635;SDS011;34429;52.332;5.614;2022-07-26T15:16:57;1.55;;;0.70;;
48635;SDS011;34429;52.332;5.614;2022-07-26T15:19:25;4.28;;;0.85;;
48635;SDS011;34429;52.332;5.614;2022-07-26T15:21:54;3.72;;;1.02;;
48635;SDS011;34429;52.332;5.614;2022-07-26T15:26:52;2.45;;;0.85;;
48635;SDS011;34429;52.332;5.614;2022-07-26T15:29:21;1.63;;;0.65;;
48635;SDS011;34429;52.332;5.614;2022-07-26T15:31:49;2.28;;;0.70;;
48635;SDS011;34429;52.332;5.614;2022-07-26T15:34:20;3.30;;;0.98;;
48635;SDS011;34429;52.332;5.614;2022-07-26T15:36:48;2.53;;;0.68;;